sensor_id;sensor_type;location;lat;lon;timestamp;pressure;altitude;pressure_sealevel;temperature;humidity
46756;BME280;32506;52.826;-1.192;2022-12-18T00:00:53;101501.06;;;0.96;65.91
46756;BME280;32506;52.826;-1.192;2022-12-18T00:03:18;101504.66;;;0.95;65.25
46756;BME280;32506;52.826;-1.192;2022-12-18T00:05:51;101508.16;;;0.95;65.51
46756;BME280;32506;52.826;-1.192;2022-12-18T00:08:18;101511.88;;;0.93;65.69
46756;BME280;32506;52.826;-1.192;2022-12-18T00:10:45;101525.03;;;0.93;65.64
46756;BME280;32506;52.826;-1.192;2022-12-18T00:13:11;101503.38;;;0.89;65.78
46756;BME280;32506;52.826;-1.192;2022-12-18T00:15:38;101503.50;;;0.88;65.65
46756;BME280;32506;52.826;-1.192;2022-12-18T00:18:04;101507.91;;;0.87;65.22
46756;BME280;32506;52.826;-1.192;2022-12-18T00:20:29;101507.22;;;0.85;65.79
46756;BME280;32506;52.826;-1.192;2022-12-18T00:22:55;101502.09;;;0.83;65.80
46756;BME280;32506;52.826;-1.192;2022-12-18T00:25:20;101502.22;;;0.82;65.25
46756;BME280;32506;52.826;-1.192;2022-12-18T00:27:46;101502.31;;;0.80;65.28
46756;BME280;32506;52.826;-1.192;2022-12-18T00:30:11;101501.63;;;0.78;65.31
46756;BME280;32506;52.826;-1.192;2022-12-18T00:32:37;101499.13;;;0.77;65.33
46756;BME280;32506;52.826;-1.192;2022-12-18T00:35:03;101501.03;;;0.75;65.29
46756;BME280;32506;52.826;-1.192;2022-12-18T00:37:29;101499.38;;;0.74;65.23
46756;BME280;32506;52.826;-1.192;2022-12-18T00:39:54;101500.34;;;0.73;65.68
46756;BME280;32506;52.826;-1.192;2022-12-18T00:42:20;101505.72;;;0.71;65.25
46756;BME280;32506;52.826;-1.192;2022-12-18T00:45:04;101510.28;;;0.69;65.41
46756;BME280;32506;52.826;-1.192;2022-12-18T00:47:30;101507.78;;;0.68;65.39
46756;BME280;32506;52.826;-1.192;2022-12-18T00:49:55;101502.66;;;0.66;65.03
46756;BME280;32506;52.826;-1.192;2022-12-18T00:52:21;101499.28;;;0.64;64.99
46756;BME280;32506;52.826;-1.192;2022-12-18T00:54:46;101496.91;;;0.61;64.86
46756;BME280;32506;52.826;-1.192;2022-12-18T00:57:11;101495.25;;;0.60;64.79
46756;BME280;32506;52.826;-1.192;2022-12-18T00:59:37;101493.56;;;0.59;65.21
46756;BME280;32506;52.826;-1.192;2022-12-18T01:02:02;101489.38;;;0.56;65.21
46756;BME280;32506;52.826;-1.192;2022-12-18T01:04:28;101488.69;;;0.54;64.97
46756;BME280;32506;52.826;-1.192;2022-12-18T01:06:56;101481.03;;;0.51;65.11
46756;BME280;32506;52.826;-1.192;2022-12-18T01:09:21;101485.47;;;0.50;65.20
46756;BME280;32506;52.826;-1.192;2022-12-18T01:11:46;101482.22;;;0.47;65.10
46756;BME280;32506;52.826;-1.192;2022-12-18T01:14:12;101485.00;;;0.45;65.00
46756;BME280;32506;52.826;-1.192;2022-12-18T01:16:37;101485.13;;;0.44;64.60
46756;BME280;32506;52.826;-1.192;2022-12-18T01:19:03;101483.56;;;0.41;64.93
46756;BME280;32506;52.826;-1.192;2022-12-18T01:21:28;101479.41;;;0.39;64.50
46756;BME280;32506;52.826;-1.192;2022-12-18T01:23:56;101479.66;;;0.36;64.62
46756;BME280;32506;52.826;-1.192;2022-12-18T01:26:22;101477.97;;;0.35;65.03
46756;BME280;32506;52.826;-1.192;2022-12-18T01:28:48;101469.50;;;0.31;64.48
46756;BME280;32506;52.826;-1.192;2022-12-18T01:31:25;101459.09;;;0.29;64.50
46756;BME280;32506;52.826;-1.192;2022-12-18T01:33:52;101455.91;;;0.26;64.63
46756;BME280;32506;52.826;-1.192;2022-12-18T01:38:44;101446.69;;;0.20;64.37
46756;BME280;32506;52.826;-1.192;2022-12-18T01:41:11;101450.44;;;0.18;64.21
46756;BME280;32506;52.826;-1.192;2022-12-18T01:43:57;101449.69;;;0.15;64.45
46756;BME280;32506;52.826;-1.192;2022-12-18T01:46:25;101464.88;;;0.12;64.04
46756;BME280;32506;52.826;-1.192;2022-12-18T01:48:54;101466.81;;;0.10;64.22
46756;BME280;32506;52.826;-1.192;2022-12-18T01:51:21;101469.78;;;0.05;64.14
46756;BME280;32506;52.826;-1.192;2022-12-18T01:53:48;101464.66;;;0.04;63.71
46756;BME280;32506;52.826;-1.192;2022-12-18T01:56:19;101465.84;;;-0.01;63.49
46756;BME280;32506;52.826;-1.192;2022-12-18T02:01:23;101468.00;;;-0.06;63.65
46756;BME280;32506;52.826;-1.192;2022-12-18T02:03:48;101466.59;;;-0.10;63.51
46756;BME280;32506;52.826;-1.192;2022-12-18T02:06:33;101470.28;;;-0.12;63.73
46756;BME280;32506;52.826;-1.192;2022-12-18T02:09:34;101469.72;;;-0.16;63.55
46756;BME280;32506;52.826;-1.192;2022-12-18T02:12:17;101463.03;;;-0.20;63.63
46756;BME280;32506;52.826;-1.192;2022-12-18T02:14:53;101462.44;;;-0.24;63.26
46756;BME280;32506;52.826;-1.192;2022-12-18T02:17:22;101465.31;;;-0.27;63.27
46756;BME280;32506;52.826;-1.192;2022-12-18T02:27:52;101467.09;;;-0.39;63.94
46756;BME280;32506;52.826;-1.192;2022-12-18T02:30:20;101485.59;;;-0.40;63.46
46756;BME280;32506;52.826;-1.192;2022-12-18T02:32:50;101489.28;;;-0.43;63.46
46756;BME280;32506;52.826;-1.192;2022-12-18T02:35:22;101486.75;;;-0.44;63.74
46756;BME280;32506;52.826;-1.192;2022-12-18T02:37:49;101480.81;;;-0.46;63.95
46756;BME280;32506;52.826;-1.192;2022-12-18T02:40:19;101481.75;;;-0.47;63.90
46756;BME280;32506;52.826;-1.192;2022-12-18T02:42:47;101481.06;;;-0.49;63.94
46756;BME280;32506;52.826;-1.192;2022-12-18T02:45:12;101477.56;;;-0.50;64.24
46756;BME280;32506;52.826;-1.192;2022-12-18T02:47:39;101484.75;;;-0.52;64.15
46756;BME280;32506;52.826;-1.192;2022-12-18T02:50:38;101482.25;;;-0.54;64.10
46756;BME280;32506;52.826;-1.192;2022-12-18T03:01:38;101492.25;;;-0.59;64.48
46756;BME280;32506;52.826;-1.192;2022-12-18T03:04:30;101494.16;;;-0.61;63.98
46756;BME280;32506;52.826;-1.192;2022-12-18T03:07:02;101482.81;;;-0.61;64.05
46756;BME280;32506;52.826;-1.192;2022-12-18T03:09:41;101477.81;;;-0.64;64.40
46756;BME280;32506;52.826;-1.192;2022-12-18T03:12:32;101481.41;;;-0.65;64.07
46756;BME280;32506;52.826;-1.192;2022-12-18T03:15:12;101476.25;;;-0.67;64.13
46756;BME280;32506;52.826;-1.192;2022-12-18T03:17:42;101466.81;;;-0.70;64.05
46756;BME280;32506;52.826;-1.192;2022-12-18T03:20:15;101471.34;;;-0.72;64.04
46756;BME280;32506;52.826;-1.192;2022-12-18T03:22:45;101465.38;;;-0.74;64.19
46756;BME280;32506;52.826;-1.192;2022-12-18T03:25:13;101456.78;;;-0.76;63.99
46756;BME280;32506;52.826;-1.192;2022-12-18T03:27:44;101452.47;;;-0.77;64.12
46756;BME280;32506;52.826;-1.192;2022-12-18T03:30:13;101452.47;;;-0.77;64.27
46756;BME280;32506;52.826;-1.192;2022-12-18T03:35:18;101458.09;;;-0.81;64.15
46756;BME280;32506;52.826;-1.192;2022-12-18T03:37:45;101449.28;;;-0.80;64.28
46756;BME280;32506;52.826;-1.192;2022-12-18T03:40:11;101441.59;;;-0.83;64.38
46756;BME280;32506;52.826;-1.192;2022-12-18T03:45:24;101433.03;;;-0.86;64.50
46756;BME280;32506;52.826;-1.192;2022-12-18T03:48:05;101423.34;;;-0.85;64.62
46756;BME280;32506;52.826;-1.192;2022-12-18T03:55:45;101392.81;;;-0.86;64.96
46756;BME280;32506;52.826;-1.192;2022-12-18T03:58:16;101381.47;;;-0.87;64.80
46756;BME280;32506;52.826;-1.192;2022-12-18T04:00:43;101390.19;;;-0.86;65.05
46756;BME280;32506;52.826;-1.192;2022-12-18T04:03:10;101385.06;;;-0.88;64.99
46756;BME280;32506;52.826;-1.192;2022-12-18T04:05:37;101378.03;;;-0.87;64.89
46756;BME280;32506;52.826;-1.192;2022-12-18T04:08:04;101378.03;;;-0.87;64.87
46756;BME280;32506;52.826;-1.192;2022-12-18T04:10:30;101386.84;;;-0.88;65.02
46756;BME280;32506;52.826;-1.192;2022-12-18T04:12:56;101385.06;;;-0.88;65.02
46756;BME280;32506;52.826;-1.192;2022-12-18T04:15:23;101382.44;;;-0.88;64.95
46756;BME280;32506;52.826;-1.192;2022-12-18T04:17:49;101386.00;;;-0.89;65.14
46756;BME280;32506;52.826;-1.192;2022-12-18T04:20:16;101380.75;;;-0.89;64.93
46756;BME280;32506;52.826;-1.192;2022-12-18T04:22:42;101385.31;;;-0.91;64.95
46756;BME280;32506;52.826;-1.192;2022-12-18T04:25:07;101385.31;;;-0.91;64.99
46756;BME280;32506;52.826;-1.192;2022-12-18T04:27:33;101383.50;;;-0.90;64.83
46756;BME280;32506;52.826;-1.192;2022-12-18T04:29:58;101364.31;;;-0.91;65.13
46756;BME280;32506;52.826;-1.192;2022-12-18T04:32:24;101355.59;;;-0.91;65.01
46756;BME280;32506;52.826;-1.192;2022-12-18T04:34:49;101352.13;;;-0.92;65.08
46756;BME280;32506;52.826;-1.192;2022-12-18T04:37:15;101362.63;;;-0.92;65.11
46756;BME280;32506;52.826;-1.192;2022-12-18T04:39:40;101350.44;;;-0.93;65.24
46756;BME280;32506;52.826;-1.192;2022-12-18T04:42:06;101343.44;;;-0.92;65.20
46756;BME280;32506;52.826;-1.192;2022-12-18T04:44:31;101339.94;;;-0.93;65.08
46756;BME280;32506;52.826;-1.192;2022-12-18T04:46:57;101337.31;;;-0.93;65.36
46756;BME280;32506;52.826;-1.192;2022-12-18T04:49:22;101337.31;;;-0.93;65.65
46756;BME280;32506;52.826;-1.192;2022-12-18T04:51:48;101327.69;;;-0.92;65.57
46756;BME280;32506;52.826;-1.192;2022-12-18T04:54:13;101328.50;;;-0.92;65.49
46756;BME280;32506;52.826;-1.192;2022-12-18T04:56:39;101323.25;;;-0.92;65.68
46756;BME280;32506;52.826;-1.192;2022-12-18T04:59:05;101322.44;;;-0.92;65.52
46756;BME280;32506;52.826;-1.192;2022-12-18T05:01:30;101321.50;;;-0.91;65.46
46756;BME280;32506;52.826;-1.192;2022-12-18T05:04:00;101314.44;;;-0.91;65.51
46756;BME280;32506;52.826;-1.192;2022-12-18T05:06:25;101318.00;;;-0.92;65.85
46756;BME280;32506;52.826;-1.192;2022-12-18T05:08:51;101311.81;;;-0.91;65.63
46756;BME280;32506;52.826;-1.192;2022-12-18T05:11:16;101286.41;;;-0.90;66.09
46756;BME280;32506;52.826;-1.192;2022-12-18T05:13:43;101288.19;;;-0.91;66.03
46756;BME280;32506;52.826;-1.192;2022-12-18T05:16:10;101281.16;;;-0.90;65.77
46756;BME280;32506;52.826;-1.192;2022-12-18T05:18:35;101267.88;;;-0.89;65.98
46756;BME280;32506;52.826;-1.192;2022-12-18T05:21:01;101261.81;;;-0.89;66.26
46756;BME280;32506;52.826;-1.192;2022-12-18T05:23:27;101253.94;;;-0.89;66.17
46756;BME280;32506;52.826;-1.192;2022-12-18T05:25:57;101258.25;;;-0.88;66.07
46756;BME280;32506;52.826;-1.192;2022-12-18T05:28:24;101238.94;;;-0.87;66.09
46756;BME280;32506;52.826;-1.192;2022-12-18T05:30:58;101238.94;;;-0.87;66.30
46756;BME280;32506;52.826;-1.192;2022-12-18T05:33:25;101238.81;;;-0.86;66.31
46756;BME280;32506;52.826;-1.192;2022-12-18T05:35:53;101237.13;;;-0.87;66.43
46756;BME280;32506;52.826;-1.192;2022-12-18T05:38:20;101232.69;;;-0.86;66.18
46756;BME280;32506;52.826;-1.192;2022-12-18T05:40:48;101249.31;;;-0.86;66.38
46756;BME280;32506;52.826;-1.192;2022-12-18T05:43:14;101259.81;;;-0.86;66.50
46756;BME280;32506;52.826;-1.192;2022-12-18T05:45:40;101262.28;;;-0.84;66.50
46756;BME280;32506;52.826;-1.192;2022-12-18T05:48:06;101263.25;;;-0.85;66.50
46756;BME280;32506;52.826;-1.192;2022-12-18T05:50:36;101258.84;;;-0.85;66.26
46756;BME280;32506;52.826;-1.192;2022-12-18T05:53:03;101269.34;;;-0.85;66.00
46756;BME280;32506;52.826;-1.192;2022-12-18T05:55:28;101274.59;;;-0.85;66.46
46756;BME280;32506;52.826;-1.192;2022-12-18T05:57:53;101292.97;;;-0.85;66.16
46756;BME280;32506;52.826;-1.192;2022-12-18T06:00:19;101292.13;;;-0.85;66.25
46756;BME280;32506;52.826;-1.192;2022-12-18T06:02:48;101290.44;;;-0.86;66.22
46756;BME280;32506;52.826;-1.192;2022-12-18T06:05:13;101290.34;;;-0.85;66.35
46756;BME280;32506;52.826;-1.192;2022-12-18T06:07:38;101276.38;;;-0.85;66.61
46756;BME280;32506;52.826;-1.192;2022-12-18T06:10:04;101271.13;;;-0.85;66.47
46756;BME280;32506;52.826;-1.192;2022-12-18T06:12:30;101265.06;;;-0.86;66.25
46756;BME280;32506;52.826;-1.192;2022-12-18T06:14:56;101270.19;;;-0.84;66.31
46756;BME280;32506;52.826;-1.192;2022-12-18T06:17:21;101263.13;;;-0.83;66.52
46756;BME280;32506;52.826;-1.192;2022-12-18T06:19:47;101251.78;;;-0.84;66.34
46756;BME280;32506;52.826;-1.192;2022-12-18T06:22:12;101245.72;;;-0.85;66.54
46756;BME280;32506;52.826;-1.192;2022-12-18T06:24:38;101242.13;;;-0.83;66.20
46756;BME280;32506;52.826;-1.192;2022-12-18T06:27:03;101229.84;;;-0.83;66.56
46756;BME280;32506;52.826;-1.192;2022-12-18T06:29:29;101229.00;;;-0.83;66.56
46756;BME280;32506;52.826;-1.192;2022-12-18T06:31:54;101231.63;;;-0.83;66.50
46756;BME280;32506;52.826;-1.192;2022-12-18T06:34:20;101238.53;;;-0.82;66.26
46756;BME280;32506;52.826;-1.192;2022-12-18T06:36:45;101237.59;;;-0.81;66.54
46756;BME280;32506;52.826;-1.192;2022-12-18T06:39:11;101233.16;;;-0.81;66.71
46756;BME280;32506;52.826;-1.192;2022-12-18T06:41:36;101228.78;;;-0.80;66.92
46756;BME280;32506;52.826;-1.192;2022-12-18T06:44:01;101228.78;;;-0.80;66.90
46756;BME280;32506;52.826;-1.192;2022-12-18T06:46:27;101225.16;;;-0.79;66.87
46756;BME280;32506;52.826;-1.192;2022-12-18T06:48:52;101224.22;;;-0.78;66.87
46756;BME280;32506;52.826;-1.192;2022-12-18T06:51:20;101223.41;;;-0.79;66.74
46756;BME280;32506;52.826;-1.192;2022-12-18T06:53:46;101222.44;;;-0.78;67.16
46756;BME280;32506;52.826;-1.192;2022-12-18T06:56:12;101229.34;;;-0.77;67.01
46756;BME280;32506;52.826;-1.192;2022-12-18T06:58:38;101225.75;;;-0.76;66.90
46756;BME280;32506;52.826;-1.192;2022-12-18T07:01:06;101233.66;;;-0.76;67.02
46756;BME280;32506;52.826;-1.192;2022-12-18T07:03:32;101227.44;;;-0.75;67.16
46756;BME280;32506;52.826;-1.192;2022-12-18T07:05:58;101229.13;;;-0.74;67.27
46756;BME280;32506;52.826;-1.192;2022-12-18T07:08:23;101221.13;;;-0.72;67.42
46756;BME280;32506;52.826;-1.192;2022-12-18T07:10:48;101216.69;;;-0.72;67.14
46756;BME280;32506;52.826;-1.192;2022-12-18T07:13:15;101217.53;;;-0.71;67.35
46756;BME280;32506;52.826;-1.192;2022-12-18T07:15:42;101212.16;;;-0.70;67.32
46756;BME280;32506;52.826;-1.192;2022-12-18T07:18:08;101199.03;;;-0.70;67.14
46756;BME280;32506;52.826;-1.192;2022-12-18T07:20:33;101200.69;;;-0.69;67.42
46756;BME280;32506;52.826;-1.192;2022-12-18T07:23:02;101191.03;;;-0.68;66.82
46756;BME280;32506;52.826;-1.192;2022-12-18T07:25:27;101190.91;;;-0.66;67.01
46756;BME280;32506;52.826;-1.192;2022-12-18T07:27:54;101177.78;;;-0.66;67.01
46756;BME280;32506;52.826;-1.192;2022-12-18T07:30:19;101189.00;;;-0.64;67.07
46756;BME280;32506;52.826;-1.192;2022-12-18T07:32:45;101184.56;;;-0.64;67.28
46756;BME280;32506;52.826;-1.192;2022-12-18T07:35:10;101190.50;;;-0.62;67.20
46756;BME280;32506;52.826;-1.192;2022-12-18T07:37:36;101188.75;;;-0.61;67.16
46756;BME280;32506;52.826;-1.192;2022-12-18T07:40:01;101186.94;;;-0.61;67.09
46756;BME280;32506;52.826;-1.192;2022-12-18T07:42:26;101187.78;;;-0.60;67.15
46756;BME280;32506;52.826;-1.192;2022-12-18T07:44:59;101179.78;;;-0.59;67.41
46756;BME280;32506;52.826;-1.192;2022-12-18T07:47:25;101186.72;;;-0.58;67.18
46756;BME280;32506;52.826;-1.192;2022-12-18T07:49:51;101197.22;;;-0.58;66.98
46756;BME280;32506;52.826;-1.192;2022-12-18T07:52:17;101206.72;;;-0.57;66.77
46756;BME280;32506;52.826;-1.192;2022-12-18T07:54:45;101209.22;;;-0.55;66.82
46756;BME280;32506;52.826;-1.192;2022-12-18T07:57:16;101205.66;;;-0.54;66.88
46756;BME280;32506;52.826;-1.192;2022-12-18T07:59:41;101199.44;;;-0.53;67.00
46756;BME280;32506;52.826;-1.192;2022-12-18T08:02:07;101205.53;;;-0.53;67.11
46756;BME280;32506;52.826;-1.192;2022-12-18T08:04:35;101199.31;;;-0.52;67.26
46756;BME280;32506;52.826;-1.192;2022-12-18T08:07:01;101199.31;;;-0.52;67.04
46756;BME280;32506;52.826;-1.192;2022-12-18T08:09:26;101194.06;;;-0.52;67.02
46756;BME280;32506;52.826;-1.192;2022-12-18T08:11:52;101190.50;;;-0.51;66.64
46756;BME280;32506;52.826;-1.192;2022-12-18T08:14:17;101193.00;;;-0.49;67.06
46756;BME280;32506;52.826;-1.192;2022-12-18T08:16:43;101185.94;;;-0.48;66.85
46756;BME280;32506;52.826;-1.192;2022-12-18T08:19:08;101184.97;;;-0.47;66.70
46756;BME280;32506;52.826;-1.192;2022-12-18T08:21:33;101189.28;;;-0.46;66.82
46756;BME280;32506;52.826;-1.192;2022-12-18T08:24:00;101193.56;;;-0.45;66.90
46756;BME280;32506;52.826;-1.192;2022-12-18T08:26:28;101197.03;;;-0.45;66.85
46756;BME280;32506;52.826;-1.192;2022-12-18T08:28:55;101195.22;;;-0.44;66.65
46756;BME280;32506;52.826;-1.192;2022-12-18T08:31:22;101192.59;;;-0.44;66.62
46756;BME280;32506;52.826;-1.192;2022-12-18T08:33:49;101191.78;;;-0.45;66.80
46756;BME280;32506;52.826;-1.192;2022-12-18T08:36:15;101191.66;;;-0.43;66.96
46756;BME280;32506;52.826;-1.192;2022-12-18T08:38:40;101193.19;;;-0.41;66.68
46756;BME280;32506;52.826;-1.192;2022-12-18T08:41:11;101194.03;;;-0.40;66.68
46756;BME280;32506;52.826;-1.192;2022-12-18T08:43:37;101186.97;;;-0.40;66.67
46756;BME280;32506;52.826;-1.192;2022-12-18T08:46:22;101177.28;;;-0.39;66.71
46756;BME280;32506;52.826;-1.192;2022-12-18T08:48:51;101167.50;;;-0.37;66.76
46756;BME280;32506;52.826;-1.192;2022-12-18T08:51:17;101144.81;;;-0.38;67.04
46756;BME280;32506;52.826;-1.192;2022-12-18T08:53:43;101137.66;;;-0.36;66.61
46756;BME280;32506;52.826;-1.192;2022-12-18T08:56:09;101139.31;;;-0.35;66.65
46756;BME280;32506;52.826;-1.192;2022-12-18T08:58:35;101119.97;;;-0.34;66.46
46756;BME280;32506;52.826;-1.192;2022-12-18T09:01:05;101118.19;;;-0.33;66.76
46756;BME280;32506;52.826;-1.192;2022-12-18T09:03:31;101132.97;;;-0.32;66.44
46756;BME280;32506;52.826;-1.192;2022-12-18T09:05:57;101102.16;;;-0.30;66.45
46756;BME280;32506;52.826;-1.192;2022-12-18T09:08:26;101123.19;;;-0.30;66.59
46756;BME280;32506;52.826;-1.192;2022-12-18T09:10:52;101126.50;;;-0.28;66.29
46756;BME280;32506;52.826;-1.192;2022-12-18T09:13:18;101124.72;;;-0.28;66.51
46756;BME280;32506;52.826;-1.192;2022-12-18T09:15:46;101114.91;;;-0.26;66.38
46756;BME280;32506;52.826;-1.192;2022-12-18T09:18:13;101098.19;;;-0.25;66.35
46756;BME280;32506;52.826;-1.192;2022-12-18T09:20:39;101096.28;;;-0.23;66.28
46756;BME280;32506;52.826;-1.192;2022-12-18T09:23:05;101097.91;;;-0.22;66.67
46756;BME280;32506;52.826;-1.192;2022-12-18T09:25:32;101089.06;;;-0.21;66.49
46756;BME280;32506;52.826;-1.192;2022-12-18T09:28:15;101087.97;;;-0.18;66.69
46756;BME280;32506;52.826;-1.192;2022-12-18T09:30:43;101089.66;;;-0.17;66.88
46756;BME280;32506;52.826;-1.192;2022-12-18T09:33:10;101083.44;;;-0.16;66.91
46756;BME280;32506;52.826;-1.192;2022-12-18T09:35:36;101107.66;;;-0.12;66.94
46756;BME280;32506;52.826;-1.192;2022-12-18T09:38:02;101117.22;;;-0.11;67.35
46756;BME280;32506;52.826;-1.192;2022-12-18T09:40:34;101108.22;;;-0.09;67.34
46756;BME280;32506;52.826;-1.192;2022-12-18T09:43:03;101105.34;;;-0.06;67.00
46756;BME280;32506;52.826;-1.192;2022-12-18T09:45:34;101095.69;;;-0.05;67.11
46756;BME280;32506;52.826;-1.192;2022-12-18T09:48:05;101081.44;;;-0.03;66.95
46756;BME280;32506;52.826;-1.192;2022-12-18T09:50:35;101099.69;;;-0.01;67.07
46756;BME280;32506;52.826;-1.192;2022-12-18T09:53:15;101085.59;;;0.00;67.41
46756;BME280;32506;52.826;-1.192;2022-12-18T09:55:45;101080.06;;;0.03;67.13
46756;BME280;32506;52.826;-1.192;2022-12-18T10:00:43;101049.94;;;0.07;67.15
46756;BME280;32506;52.826;-1.192;2022-12-18T10:03:11;101054.91;;;0.10;67.73
46756;BME280;32506;52.826;-1.192;2022-12-18T10:08:15;101041.41;;;0.15;67.58
46756;BME280;32506;52.826;-1.192;2022-12-18T10:10:51;101046.38;;;0.18;68.64
46756;BME280;32506;52.826;-1.192;2022-12-18T10:13:31;101021.75;;;0.19;68.29
46756;BME280;32506;52.826;-1.192;2022-12-18T10:16:10;101026.72;;;0.22;68.56
46756;BME280;32506;52.826;-1.192;2022-12-18T10:19:01;101017.63;;;0.26;68.03
46756;BME280;32506;52.826;-1.192;2022-12-18T10:21:41;101004.31;;;0.28;68.36
46756;BME280;32506;52.826;-1.192;2022-12-18T10:26:46;100991.59;;;0.33;67.90
46756;BME280;32506;52.826;-1.192;2022-12-18T10:29:16;100991.34;;;0.36;68.14
46756;BME280;32506;52.826;-1.192;2022-12-18T10:31:41;100990.22;;;0.39;68.35
46756;BME280;32506;52.826;-1.192;2022-12-18T10:34:11;100985.69;;;0.41;68.36
46756;BME280;32506;52.826;-1.192;2022-12-18T10:36:39;100981.94;;;0.43;68.06
46756;BME280;32506;52.826;-1.192;2022-12-18T10:39:17;100973.78;;;0.46;68.20
46756;BME280;32506;52.826;-1.192;2022-12-18T10:41:43;100974.47;;;0.48;68.27
46756;BME280;32506;52.826;-1.192;2022-12-18T10:46:48;100966.97;;;0.54;68.07
46756;BME280;32506;52.826;-1.192;2022-12-18T10:49:29;100954.53;;;0.56;68.42
46756;BME280;32506;52.826;-1.192;2022-12-18T10:52:25;100945.69;;;0.57;68.05
46756;BME280;32506;52.826;-1.192;2022-12-18T10:55:03;100937.50;;;0.60;68.19
46756;BME280;32506;52.826;-1.192;2022-12-18T10:57:33;100941.66;;;0.62;68.45
46756;BME280;32506;52.826;-1.192;2022-12-18T11:00:18;100941.53;;;0.64;68.58
46756;BME280;32506;52.826;-1.192;2022-12-18T11:02:45;100931.56;;;0.68;68.16
46756;BME280;32506;52.826;-1.192;2022-12-18T11:05:29;100919.09;;;0.70;68.23
46756;BME280;32506;52.826;-1.192;2022-12-18T11:07:56;100921.56;;;0.71;68.44
46756;BME280;32506;52.826;-1.192;2022-12-18T11:10:36;100915.19;;;0.74;68.31
46756;BME280;32506;52.826;-1.192;2022-12-18T11:13:16;100921.97;;;0.76;68.69
46756;BME280;32506;52.826;-1.192;2022-12-18T11:15:43;100914.78;;;0.78;68.46
46756;BME280;32506;52.826;-1.192;2022-12-18T11:18:17;100903.16;;;0.81;68.04
46756;BME280;32506;52.826;-1.192;2022-12-18T11:20:56;100891.66;;;0.82;68.42
46756;BME280;32506;52.826;-1.192;2022-12-18T11:23:23;100894.97;;;0.84;68.05
46756;BME280;32506;52.826;-1.192;2022-12-18T11:26:02;100887.78;;;0.86;68.12
46756;BME280;32506;52.826;-1.192;2022-12-18T11:28:38;100874.47;;;0.88;68.28
46756;BME280;32506;52.826;-1.192;2022-12-18T11:31:18;100868.25;;;0.89;68.08
46756;BME280;32506;52.826;-1.192;2022-12-18T11:34:04;100871.41;;;0.92;68.05
46756;BME280;32506;52.826;-1.192;2022-12-18T11:36:42;100854.66;;;0.93;68.31
46756;BME280;32506;52.826;-1.192;2022-12-18T11:42:05;100842.03;;;0.97;68.26
46756;BME280;32506;52.826;-1.192;2022-12-18T11:44:50;100833.03;;;0.99;68.44
46756;BME280;32506;52.826;-1.192;2022-12-18T11:47:49;100820.53;;;1.02;68.72
46756;BME280;32506;52.826;-1.192;2022-12-18T11:50:20;100821.22;;;1.04;68.31
46756;BME280;32506;52.826;-1.192;2022-12-18T11:52:47;100809.59;;;1.06;68.43
46756;BME280;32506;52.826;-1.192;2022-12-18T11:55:14;100816.50;;;1.07;68.65
46756;BME280;32506;52.826;-1.192;2022-12-18T11:58:08;100805.81;;;1.09;68.15
46756;BME280;32506;52.826;-1.192;2022-12-18T12:01:25;100802.06;;;1.11;68.23
46756;BME280;32506;52.826;-1.192;2022-12-18T12:14:42;100762.53;;;1.21;68.32
46756;BME280;32506;52.826;-1.192;2022-12-18T12:25:47;100752.91;;;1.30;68.65
46756;BME280;32506;52.826;-1.192;2022-12-18T12:39:06;100714.03;;;1.42;68.82
46756;BME280;32506;52.826;-1.192;2022-12-18T12:41:33;100705.97;;;1.43;68.62
46756;BME280;32506;52.826;-1.192;2022-12-18T12:44:22;100697.91;;;1.45;68.71
46756;BME280;32506;52.826;-1.192;2022-12-18T12:46:51;100695.97;;;1.47;68.59
46756;BME280;32506;52.826;-1.192;2022-12-18T12:49:20;100700.13;;;1.49;68.86
46756;BME280;32506;52.826;-1.192;2022-12-18T12:51:58;100686.78;;;1.51;68.69
46756;BME280;32506;52.826;-1.192;2022-12-18T12:54:26;100682.19;;;1.53;68.53
46756;BME280;32506;52.826;-1.192;2022-12-18T12:57:21;100678.41;;;1.56;69.31
46756;BME280;32506;52.826;-1.192;2022-12-18T13:00:09;100675.78;;;1.56;68.51
46756;BME280;32506;52.826;-1.192;2022-12-18T13:02:44;100665.94;;;1.58;69.24
46756;BME280;32506;52.826;-1.192;2022-12-18T13:05:34;100651.78;;;1.59;68.66
46756;BME280;32506;52.826;-1.192;2022-12-18T13:08:06;100641.91;;;1.61;69.17
46756;BME280;32506;52.826;-1.192;2022-12-18T13:10:35;100658.41;;;1.63;69.16
46756;BME280;32506;52.826;-1.192;2022-12-18T13:18:25;100635.19;;;1.66;69.17
46756;BME280;32506;52.826;-1.192;2022-12-18T13:23:19;100622.72;;;1.68;68.64
46756;BME280;32506;52.826;-1.192;2022-12-18T13:25:58;100604.97;;;1.71;68.97
46756;BME280;32506;52.826;-1.192;2022-12-18T13:31:00;100602.16;;;1.72;68.55
46756;BME280;32506;52.826;-1.192;2022-12-18T13:36:01;100590.63;;;1.73;68.73
46756;BME280;32506;52.826;-1.192;2022-12-18T13:38:35;100589.63;;;1.74;69.06
46756;BME280;32506;52.826;-1.192;2022-12-18T13:41:07;100583.41;;;1.75;68.57
46756;BME280;32506;52.826;-1.192;2022-12-18T13:43:54;100581.56;;;1.76;68.81
46756;BME280;32506;52.826;-1.192;2022-12-18T13:46:26;100591.16;;;1.77;68.56
46756;BME280;32506;52.826;-1.192;2022-12-18T13:49:02;100590.16;;;1.78;68.40
46756;BME280;32506;52.826;-1.192;2022-12-18T13:51:31;100589.03;;;1.80;68.69
46756;BME280;32506;52.826;-1.192;2022-12-18T13:54:00;100579.63;;;1.78;68.90
46756;BME280;32506;52.826;-1.192;2022-12-18T13:56:32;100571.56;;;1.79;68.24
46756;BME280;32506;52.826;-1.192;2022-12-18T13:59:25;100563.50;;;1.81;68.99
46756;BME280;32506;52.826;-1.192;2022-12-18T14:01:59;100550.31;;;1.81;68.65
46756;BME280;32506;52.826;-1.192;2022-12-18T14:04:33;100546.72;;;1.82;68.99
46756;BME280;32506;52.826;-1.192;2022-12-18T14:07:04;100530.06;;;1.81;68.55
46756;BME280;32506;52.826;-1.192;2022-12-18T14:09:35;100531.56;;;1.84;68.86
46756;BME280;32506;52.826;-1.192;2022-12-18T14:12:01;100534.22;;;1.84;68.40
46756;BME280;32506;52.826;-1.192;2022-12-18T14:14:48;100522.81;;;1.83;68.31
46756;BME280;32506;52.826;-1.192;2022-12-18T14:17:15;100510.50;;;1.84;69.01
46756;BME280;32506;52.826;-1.192;2022-12-18T14:19:47;100501.59;;;1.85;68.69
46756;BME280;32506;52.826;-1.192;2022-12-18T14:22:21;100495.34;;;1.86;68.75
46756;BME280;32506;52.826;-1.192;2022-12-18T14:25:28;100502.25;;;1.87;68.64
46756;BME280;32506;52.826;-1.192;2022-12-18T14:30:35;100493.50;;;1.87;68.47